createdAt,value
2023-04-15T00:00:08.473Z,168.36
2023-04-15T00:01:08.371Z,171.50
2023-04-15T00:02:08.448Z,166.46
2023-04-15T00:03:08.545Z,158.26
2023-04-15T00:04:08.529Z,150.02
2023-04-15T00:05:08.385Z,151.57
2023-04-15T00:06:08.464Z,155.84
2023-04-15T00:07:08.526Z,157.57
2023-04-15T00:08:08.499Z,157.97
2023-04-15T00:09:08.521Z,158.86
2023-04-15T00:10:08.541Z,159.17
2023-04-15T00:11:08.570Z,158.16
2023-04-15T00:12:08.553Z,161.36
2023-04-15T00:13:08.592Z,170.01
2023-04-15T00:14:08.662Z,169.63
2023-04-15T00:15:08.734Z,169.41
2023-04-15T00:16:08.851Z,171.35
2023-04-15T00:17:08.855Z,171.03
2023-04-15T00:18:08.945Z,173.20
2023-04-15T00:19:08.901Z,181.03
2023-04-15T00:20:09.682Z,180.70
2023-04-15T00:21:09.066Z,168.03
2023-04-15T00:22:08.941Z,161.26
2023-04-15T00:23:08.976Z,160.09
2023-04-15T00:24:09.046Z,157.94
2023-04-15T00:25:09.076Z,150.26
2023-04-15T00:26:09.189Z,148.18
2023-04-15T00:27:09.207Z,146.97
2023-04-15T00:28:09.283Z,144.23
2023-04-15T00:29:09.561Z,141.34
2023-04-15T00:30:09.317Z,142.88
2023-04-15T00:31:09.370Z,143.30
2023-04-15T00:32:09.401Z,146.98
2023-04-15T00:33:09.432Z,151.62
2023-04-15T00:34:09.533Z,145.68
2023-04-15T00:35:09.577Z,144.47
2023-04-15T00:36:09.580Z,149.99
2023-04-15T00:37:09.651Z,146.80
2023-04-15T00:38:09.710Z,147.61
2023-04-15T00:39:09.746Z,146.73
2023-04-15T00:40:09.808Z,145.65
2023-04-15T00:41:09.854Z,145.36
2023-04-15T00:42:09.845Z,146.79
2023-04-15T00:43:09.911Z,146.76
2023-04-15T00:44:09.886Z,146.04
2023-04-15T00:45:10.092Z,149.19
2023-04-15T00:46:09.958Z,153.39
2023-04-15T00:47:09.995Z,151.61
2023-04-15T00:48:10.005Z,152.61
2023-04-15T00:49:10.082Z,156.39
2023-04-15T00:50:10.561Z,158.74
2023-04-15T00:51:10.113Z,159.65
2023-04-15T00:52:10.134Z,154.87
2023-04-15T00:53:10.151Z,156.81
2023-04-15T00:54:10.172Z,156.90
2023-04-15T00:55:11.060Z,156.12
2023-04-15T00:56:10.260Z,158.85
2023-04-15T00:57:10.275Z,159.24
2023-04-15T00:58:10.326Z,153.73
2023-04-15T00:59:10.389Z,149.63
2023-04-15T01:00:10.399Z,150.17
2023-04-15T01:01:10.408Z,152.01
2023-04-15T01:02:10.572Z,146.78
2023-04-15T01:03:10.573Z,138.76
2023-04-15T01:04:10.585Z,140.59
2023-04-15T01:05:10.571Z,137.66
2023-04-15T01:06:10.594Z,140.08
2023-04-15T01:07:10.604Z,137.50
2023-04-15T01:08:10.656Z,137.78
2023-04-15T01:09:11.072Z,139.11
2023-04-15T01:10:10.724Z,140.27
2023-04-15T01:11:10.748Z,138.26
2023-04-15T01:12:10.784Z,140.96
2023-04-15T01:13:10.821Z,136.82
2023-04-15T01:14:10.897Z,136.87
2023-04-15T01:15:10.916Z,137.01
2023-04-15T01:16:10.998Z,137.63
2023-04-15T01:17:11.000Z,142.04
2023-04-15T01:18:11.072Z,142.23
2023-04-15T01:19:11.096Z,138.32
2023-04-15T01:20:11.110Z,142.99
2023-04-15T01:21:11.141Z,143.70
2023-04-15T01:22:11.209Z,138.34
2023-04-15T01:23:11.230Z,126.36
2023-04-15T01:24:11.240Z,124.16
2023-04-15T01:25:11.251Z,129.39
2023-04-15T01:26:11.323Z,136.73
2023-04-15T01:27:11.352Z,134.94
2023-04-15T01:28:11.369Z,140.90
2023-04-15T01:29:12.041Z,142.29
2023-04-15T01:30:11.507Z,135.92
2023-04-15T01:31:11.662Z,135.46
2023-04-15T01:32:11.591Z,128.03
2023-04-15T01:33:11.600Z,135.94
2023-04-15T01:34:12.081Z,140.82
2023-04-15T01:35:11.638Z,145.33
2023-04-15T01:36:11.668Z,148.57
2023-04-15T01:37:11.737Z,148.46
2023-04-15T01:38:11.763Z,134.80
2023-04-15T01:39:12.550Z,110.15
2023-04-15T01:40:11.898Z,98.24
2023-04-15T01:41:11.858Z,89.45
2023-04-15T01:42:11.891Z,76.58
2023-04-15T01:43:11.896Z,74.21
2023-04-15T01:44:11.925Z,93.64
2023-04-15T01:45:11.926Z,112.02
2023-04-15T01:46:11.976Z,118.13
2023-04-15T01:47:11.971Z,125.24
2023-04-15T01:48:11.996Z,124.47
2023-04-15T01:49:12.063Z,103.21
2023-04-15T01:50:12.098Z,70.89
2023-04-15T01:51:12.171Z,58.94
2023-04-15T01:52:12.188Z,36.44
2023-04-15T01:53:12.139Z,61.29
2023-04-15T01:54:12.165Z,98.99
2023-04-15T01:55:12.187Z,125.53
2023-04-15T01:56:12.196Z,145.63
2023-04-15T01:57:12.231Z,158.79
2023-04-15T01:58:12.333Z,154.76
2023-04-15T01:59:12.357Z,156.30
2023-04-15T02:00:14.127Z,157.37
2023-04-15T02:01:12.483Z,151.88
2023-04-15T02:02:12.492Z,129.44
2023-04-15T02:03:12.579Z,105.86
2023-04-15T02:04:12.565Z,116.62
2023-04-15T02:05:12.618Z,126.87
2023-04-15T02:06:12.643Z,124.02
2023-04-15T02:07:12.665Z,119.12
2023-04-15T02:08:12.678Z,102.18
2023-04-15T02:09:12.784Z,72.86
2023-04-15T02:10:12.762Z,60.83
2023-04-15T02:11:12.780Z,74.61
2023-04-15T02:12:12.863Z,71.44
2023-04-15T02:13:12.929Z,54.52
2023-04-15T02:14:12.888Z,61.65
2023-04-15T02:15:12.925Z,77.00
2023-04-15T02:16:12.980Z,60.59
2023-04-15T02:17:12.959Z,41.69
2023-04-15T02:18:13.010Z,30.14
2023-04-15T02:19:12.980Z,17.00
2023-04-15T02:20:13.105Z,16.37
2023-04-15T02:21:13.036Z,20.97
2023-04-15T02:22:13.148Z,13.23
2023-04-15T02:23:13.115Z,1.85
2023-04-15T02:24:13.141Z,0.00
2023-04-15T02:25:13.149Z,0.00
2023-04-15T02:26:13.216Z,0.00
2023-04-15T02:27:13.235Z,1.21
2023-04-15T02:28:13.252Z,8.58
2023-04-15T02:29:13.300Z,9.42
2023-04-15T02:30:13.294Z,13.15
2023-04-15T02:31:13.309Z,16.70
2023-04-15T02:32:13.454Z,22.98
2023-04-15T02:33:13.436Z,25.00
2023-04-15T02:34:13.428Z,20.43
2023-04-15T02:35:13.501Z,16.31
2023-04-15T02:36:13.463Z,10.55
2023-04-15T02:37:13.487Z,7.79
2023-04-15T02:38:13.449Z,1.55
2023-04-15T02:39:13.460Z,5.85
2023-04-15T02:40:13.551Z,8.85
2023-04-15T02:41:13.554Z,7.15
2023-04-15T02:42:13.554Z,9.02
2023-04-15T02:43:13.587Z,7.94
2023-04-15T02:44:13.663Z,16.57
2023-04-15T02:45:13.768Z,24.69
2023-04-15T02:46:13.773Z,34.11
2023-04-15T02:47:13.824Z,40.92
2023-04-15T02:48:13.870Z,33.88
2023-04-15T02:49:13.837Z,27.50
2023-04-15T02:50:13.932Z,18.73
2023-04-15T02:51:13.982Z,13.19
2023-04-15T02:52:13.976Z,13.10
2023-04-15T02:53:14.006Z,20.73
2023-04-15T02:54:14.106Z,21.03
2023-04-15T02:55:14.134Z,21.11
2023-04-15T02:56:14.175Z,16.99
2023-04-15T02:57:14.218Z,16.71
2023-04-15T02:58:14.272Z,22.04
2023-04-15T02:59:14.386Z,23.77
2023-04-15T03:00:14.421Z,26.81
2023-04-15T03:01:14.430Z,29.76
2023-04-15T03:02:14.509Z,35.74
2023-04-15T03:03:14.704Z,32.35
2023-04-15T03:04:14.701Z,32.95
2023-04-15T03:05:14.434Z,34.48
2023-04-15T03:06:14.474Z,32.72
2023-04-15T03:07:14.467Z,25.31
2023-04-15T03:08:14.470Z,22.60
2023-04-15T03:09:14.525Z,23.73
2023-04-15T03:10:14.585Z,25.32
2023-04-15T03:11:14.499Z,25.24
2023-04-15T03:12:14.513Z,25.67
2023-04-15T03:13:14.538Z,27.11
2023-04-15T03:14:14.559Z,27.31
2023-04-15T03:15:14.562Z,29.53
2023-04-15T03:16:14.678Z,28.96
2023-04-15T03:17:14.545Z,27.04
2023-04-15T03:18:14.587Z,28.70
2023-04-15T03:19:14.610Z,31.76
2023-04-15T03:20:14.683Z,33.39
2023-04-15T03:21:14.663Z,32.97
2023-04-15T03:22:14.716Z,35.34
2023-04-15T03:23:14.810Z,33.47
2023-04-15T03:24:14.822Z,38.57
2023-04-15T03:25:14.887Z,43.64
2023-04-15T03:26:14.906Z,48.74
2023-04-15T03:27:14.939Z,49.90
2023-04-15T03:28:14.964Z,51.54
2023-04-15T03:29:15.034Z,49.44
2023-04-15T03:30:15.082Z,48.93
2023-04-15T03:31:15.086Z,50.38
2023-04-15T03:32:15.173Z,46.34
2023-04-15T03:33:15.088Z,36.51
2023-04-15T03:34:15.109Z,31.89
2023-04-15T03:35:15.156Z,35.23
2023-04-15T03:36:15.206Z,35.84
2023-04-15T03:37:15.283Z,35.45
2023-04-15T03:38:15.311Z,29.47
2023-04-15T03:39:15.359Z,26.27
2023-04-15T03:40:15.385Z,23.47
2023-04-15T03:41:15.457Z,22.24
2023-04-15T03:42:15.460Z,22.78
2023-04-15T03:43:15.515Z,23.25
2023-04-15T03:44:15.564Z,24.84
2023-04-15T03:45:15.680Z,26.48
2023-04-15T03:46:15.682Z,25.83
2023-04-15T03:47:15.692Z,26.19
2023-04-15T03:48:17.876Z,26.36
2023-04-15T03:49:15.967Z,34.06
2023-04-15T03:50:16.004Z,32.06
2023-04-15T03:51:16.052Z,24.07
2023-04-15T03:52:16.073Z,25.57
2023-04-15T03:53:16.093Z,23.92
2023-04-15T03:54:16.133Z,26.43
2023-04-15T03:55:16.273Z,31.04
2023-04-15T03:56:16.220Z,30.44
2023-04-15T03:57:16.266Z,28.13
2023-04-15T03:58:16.311Z,25.30
2023-04-15T03:59:16.338Z,25.07
2023-04-15T04:00:16.414Z,31.36
2023-04-15T04:01:16.447Z,31.44
2023-04-15T04:02:16.573Z,37.74
2023-04-15T04:03:16.646Z,45.23
2023-04-15T04:04:16.577Z,47.53
2023-04-15T04:05:16.543Z,35.36
2023-04-15T04:06:16.578Z,34.86
2023-04-15T04:07:16.559Z,39.59
2023-04-15T04:08:16.576Z,40.27
2023-04-15T04:09:16.590Z,38.44
2023-04-15T04:10:16.608Z,43.26
2023-04-15T04:11:16.667Z,40.21
2023-04-15T04:12:16.822Z,59.87
2023-04-15T04:13:16.769Z,50.17
2023-04-15T04:14:16.874Z,48.02
2023-04-15T04:15:16.853Z,56.70
2023-04-15T04:16:16.934Z,53.43
2023-04-15T04:17:16.870Z,50.17
2023-04-15T04:18:16.938Z,45.52
2023-04-15T04:19:16.940Z,43.40
2023-04-15T04:20:16.989Z,44.68
2023-04-15T04:21:17.032Z,56.56
2023-04-15T04:22:17.133Z,59.13
2023-04-15T04:23:17.057Z,59.99
2023-04-15T04:24:17.089Z,56.21
2023-04-15T04:25:17.236Z,54.93
2023-04-15T04:26:17.626Z,54.12
2023-04-15T04:27:17.329Z,47.90
2023-04-15T04:28:17.443Z,45.76
2023-04-15T04:29:17.528Z,46.99
2023-04-15T04:30:17.671Z,53.52
2023-04-15T04:31:17.657Z,56.05
2023-04-15T04:32:17.678Z,43.28
2023-04-15T04:33:17.771Z,36.57
2023-04-15T04:34:17.760Z,32.84
2023-04-15T04:35:17.831Z,39.57
2023-04-15T04:36:17.905Z,51.01
2023-04-15T04:37:17.942Z,57.89
2023-04-15T04:38:17.955Z,56.56
2023-04-15T04:39:18.031Z,45.84
2023-04-15T04:40:18.101Z,34.70
2023-04-15T04:41:18.134Z,24.20
2023-04-15T04:42:18.074Z,21.49
2023-04-15T04:43:18.140Z,17.70
2023-04-15T04:44:18.150Z,16.16
2023-04-15T04:45:19.164Z,19.66
2023-04-15T04:46:18.228Z,24.58
2023-04-15T04:47:18.221Z,32.34
2023-04-15T04:48:18.318Z,40.52
2023-04-15T04:49:18.332Z,49.34
2023-04-15T04:50:18.378Z,49.04
2023-04-15T04:51:18.423Z,44.23
2023-04-15T04:52:18.401Z,46.15
2023-04-15T04:53:19.092Z,44.46
2023-04-15T04:54:18.454Z,44.18
2023-04-15T04:55:18.478Z,45.15
2023-04-15T04:56:18.498Z,45.30
2023-04-15T04:57:18.556Z,46.43
2023-04-15T04:58:18.614Z,46.15
2023-04-15T04:59:19.498Z,47.65
2023-04-15T05:00:18.668Z,50.74
2023-04-15T05:01:18.700Z,47.55
2023-04-15T05:02:18.798Z,65.63
2023-04-15T05:03:18.987Z,68.61
2023-04-15T05:04:18.771Z,52.92
2023-04-15T05:05:18.810Z,42.80
2023-04-15T05:06:19.744Z,40.39
2023-04-15T05:07:18.928Z,39.76
2023-04-15T05:08:18.922Z,40.13
2023-04-15T05:09:18.975Z,33.89
2023-04-15T05:10:19.008Z,46.22
2023-04-15T05:11:19.044Z,47.32
2023-04-15T05:12:19.058Z,41.03
2023-04-15T05:13:19.069Z,34.84
2023-04-15T05:14:19.220Z,33.18
2023-04-15T05:15:19.273Z,34.38
2023-04-15T05:16:19.387Z,38.07
2023-04-15T05:17:19.477Z,32.84
2023-04-15T05:18:19.429Z,27.94
2023-04-15T05:19:19.438Z,30.85
2023-04-15T05:20:19.450Z,26.24
2023-04-15T05:21:19.482Z,25.00
2023-04-15T05:22:19.547Z,24.38
2023-04-15T05:23:19.565Z,23.86
2023-04-15T05:24:19.641Z,23.89
2023-04-15T05:25:19.650Z,25.00
2023-04-15T05:26:19.717Z,22.70
2023-04-15T05:27:19.814Z,26.16
2023-04-15T05:28:19.808Z,27.85
2023-04-15T05:29:19.875Z,29.20
2023-04-15T05:30:19.898Z,29.81
2023-04-15T05:31:19.992Z,32.52
2023-04-15T05:32:20.128Z,38.42
2023-04-15T05:33:20.076Z,46.41
2023-04-15T05:34:20.122Z,49.59
2023-04-15T05:35:20.173Z,48.12
2023-04-15T05:36:20.106Z,46.56
2023-04-15T05:37:20.133Z,45.17
2023-04-15T05:38:20.157Z,41.65
2023-04-15T05:39:20.172Z,42.11
2023-04-15T05:40:20.233Z,46.94
2023-04-15T05:41:20.195Z,46.93
2023-04-15T05:42:21.180Z,48.62
2023-04-15T05:43:20.187Z,50.13
2023-04-15T05:44:20.210Z,60.98
2023-04-15T05:45:20.233Z,67.78
2023-04-15T05:46:20.226Z,72.24
2023-04-15T05:47:20.283Z,72.44
2023-04-15T05:48:20.253Z,70.28
2023-04-15T05:49:20.306Z,82.00
2023-04-15T05:50:20.321Z,86.28
2023-04-15T05:51:20.292Z,87.63
2023-04-15T05:52:20.338Z,74.65
2023-04-15T05:53:20.330Z,66.13
2023-04-15T05:54:20.475Z,50.24
2023-04-15T05:55:20.326Z,47.30
2023-04-15T05:56:20.640Z,43.87
2023-04-15T05:57:20.396Z,34.32
2023-04-15T05:58:20.442Z,35.79
2023-04-15T05:59:20.485Z,45.31
2023-04-15T06:00:20.520Z,45.05
2023-04-15T06:01:20.529Z,28.58
2023-04-15T06:02:21.177Z,24.21
2023-04-15T06:03:20.675Z,24.04
2023-04-15T06:04:20.785Z,31.10
2023-04-15T06:05:20.711Z,26.18
2023-04-15T06:06:21.140Z,23.41
2023-04-15T06:07:20.793Z,28.18
2023-04-15T06:08:20.900Z,21.65
2023-04-15T06:09:20.911Z,13.00
2023-04-15T06:10:20.992Z,9.12
2023-04-15T06:11:21.126Z,9.54
2023-04-15T06:12:21.038Z,7.54
2023-04-15T06:13:21.063Z,2.78
2023-04-15T06:14:21.083Z,5.84
2023-04-15T06:15:21.096Z,17.16
2023-04-15T06:16:21.160Z,26.23
2023-04-15T06:17:21.215Z,30.24
2023-04-15T06:18:21.204Z,31.83
2023-04-15T06:19:21.213Z,25.59
2023-04-15T06:20:21.701Z,26.07
2023-04-15T06:21:21.350Z,29.96
2023-04-15T06:22:21.293Z,29.82
2023-04-15T06:23:21.297Z,28.17
2023-04-15T06:24:21.429Z,33.65
2023-04-15T06:25:21.390Z,36.77
2023-04-15T06:26:21.393Z,37.77
2023-04-15T06:27:21.430Z,39.39
2023-04-15T06:28:21.443Z,33.88
2023-04-15T06:29:21.463Z,32.19
2023-04-15T06:30:22.931Z,32.15
2023-04-15T06:31:21.523Z,29.76
2023-04-15T06:32:21.569Z,30.02
2023-04-15T06:33:21.515Z,37.98
2023-04-15T06:34:21.502Z,47.69
2023-04-15T06:35:21.516Z,54.47
2023-04-15T06:36:21.486Z,73.73
2023-04-15T06:37:21.502Z,91.93
2023-04-15T06:38:21.476Z,102.22
2023-04-15T06:39:21.431Z,104.06
2023-04-15T06:40:21.519Z,140.55
2023-04-15T06:41:21.505Z,141.36
2023-04-15T06:42:21.460Z,151.35
2023-04-15T06:43:21.424Z,135.61
2023-04-15T06:44:21.434Z,161.68
2023-04-15T06:45:22.137Z,171.64
2023-04-15T06:46:21.481Z,148.09
2023-04-15T06:47:21.483Z,142.20
2023-04-15T06:48:21.420Z,151.50
2023-04-15T06:49:21.413Z,151.15
2023-04-15T06:50:21.406Z,157.64
2023-04-15T06:51:21.374Z,159.75
2023-04-15T06:52:21.390Z,160.46
2023-04-15T06:53:21.372Z,148.07
2023-04-15T06:54:21.369Z,147.72
2023-04-15T06:55:21.388Z,136.80
2023-04-15T06:56:21.351Z,134.68
2023-04-15T06:57:21.385Z,143.74
2023-04-15T06:58:21.342Z,135.46
2023-04-15T06:59:21.316Z,135.26
2023-04-15T07:00:21.323Z,146.86
2023-04-15T07:01:21.363Z,146.25
2023-04-15T07:02:21.405Z,128.30
2023-04-15T07:03:21.313Z,133.00
2023-04-15T07:04:21.330Z,140.33
2023-04-15T07:05:21.282Z,143.77
2023-04-15T07:06:21.298Z,128.55
2023-04-15T07:07:21.272Z,138.88
2023-04-15T07:08:21.263Z,130.05
2023-04-15T07:09:21.272Z,110.66
2023-04-15T07:10:21.266Z,105.67
2023-04-15T07:11:21.229Z,97.05
2023-04-15T07:12:21.241Z,109.07
2023-04-15T07:13:21.265Z,116.01
2023-04-15T07:14:21.226Z,108.94
2023-04-15T07:15:21.220Z,96.27
2023-04-15T07:16:21.268Z,106.11
2023-04-15T07:17:21.228Z,120.12
2023-04-15T07:18:21.214Z,129.13
2023-04-15T07:19:21.225Z,132.20
2023-04-15T07:20:21.188Z,144.65
2023-04-15T07:21:21.166Z,127.14
2023-04-15T07:22:21.672Z,91.16
2023-04-15T07:23:21.154Z,82.29
2023-04-15T07:24:21.156Z,85.06
2023-04-15T07:25:21.171Z,71.41
2023-04-15T07:26:21.143Z,101.94
2023-04-15T07:27:21.117Z,94.64
2023-04-15T07:28:21.134Z,73.01
2023-04-15T07:29:21.155Z,70.18
2023-04-15T07:30:21.118Z,86.48
2023-04-15T07:31:21.173Z,62.37
2023-04-15T07:32:21.117Z,128.16
2023-04-15T07:33:21.138Z,127.30
2023-04-15T07:34:21.206Z,103.70
2023-04-15T07:35:21.267Z,78.10
2023-04-15T07:36:21.185Z,64.18
2023-04-15T07:37:21.184Z,75.23
2023-04-15T07:38:21.178Z,82.90
2023-04-15T07:39:21.312Z,79.32
2023-04-15T07:40:21.267Z,56.18
2023-04-15T07:41:21.257Z,112.12
2023-04-15T07:42:21.299Z,132.88
2023-04-15T07:43:21.369Z,112.75
2023-04-15T07:44:21.329Z,109.95
2023-04-15T07:45:21.357Z,116.58
2023-04-15T07:46:21.455Z,134.05
2023-04-15T07:47:21.535Z,104.32
2023-04-15T07:48:21.466Z,128.15
2023-04-15T07:49:21.553Z,111.28
2023-04-15T07:50:21.527Z,88.13
2023-04-15T07:51:21.577Z,97.57
2023-04-15T07:52:21.594Z,81.22
2023-04-15T07:53:21.604Z,58.82
2023-04-15T07:54:21.684Z,54.36
2023-04-15T07:55:21.694Z,57.29
2023-04-15T07:56:21.791Z,50.40
2023-04-15T07:57:21.795Z,44.46
2023-04-15T07:58:21.859Z,39.15
2023-04-15T07:59:21.888Z,37.04
2023-04-15T08:00:21.897Z,57.65
2023-04-15T08:01:21.961Z,97.15
2023-04-15T08:02:22.062Z,93.34
2023-04-15T08:03:22.092Z,87.26
2023-04-15T08:04:22.111Z,88.45
2023-04-15T08:05:22.133Z,79.34
2023-04-15T08:06:22.109Z,53.61
2023-04-15T08:07:22.181Z,75.86
2023-04-15T08:08:22.262Z,71.83
2023-04-15T08:09:22.327Z,69.64
2023-04-15T08:10:22.392Z,109.13
2023-04-15T08:11:22.348Z,76.36
2023-04-15T08:12:22.398Z,93.62
2023-04-15T08:13:22.400Z,84.80
2023-04-15T08:14:22.395Z,69.27
2023-04-15T08:15:22.438Z,71.86
2023-04-15T08:16:22.678Z,67.29
2023-04-15T08:17:22.537Z,69.53
2023-04-15T08:18:22.538Z,80.69
2023-04-15T08:19:22.596Z,87.09
2023-04-15T08:20:22.686Z,80.29
2023-04-15T08:21:22.668Z,67.47
2023-04-15T08:22:22.749Z,87.32
2023-04-15T08:23:22.762Z,70.16
2023-04-15T08:24:22.835Z,59.96
2023-04-15T08:25:23.163Z,43.02
2023-04-15T08:26:22.893Z,33.68
2023-04-15T08:27:22.942Z,24.50
2023-04-15T08:28:22.974Z,17.98
2023-04-15T08:29:23.121Z,23.53
2023-04-15T08:30:23.063Z,27.87
2023-04-15T08:31:23.137Z,30.38
2023-04-15T08:32:23.138Z,21.31
2023-04-15T08:33:23.180Z,16.09
2023-04-15T08:34:23.228Z,15.21
2023-04-15T08:35:23.302Z,11.79
2023-04-15T08:36:23.410Z,12.69
2023-04-15T08:37:23.379Z,28.04
2023-04-15T08:38:23.372Z,23.07
2023-04-15T08:39:23.442Z,23.67
2023-04-15T08:40:23.498Z,27.07
2023-04-15T08:41:23.556Z,20.21
2023-04-15T08:42:23.556Z,10.91
2023-04-15T08:43:23.617Z,14.80
2023-04-15T08:44:23.608Z,11.46
2023-04-15T08:45:23.651Z,12.07
2023-04-15T08:46:23.684Z,19.85
2023-04-15T08:47:23.661Z,12.54
2023-04-15T08:48:23.650Z,18.17
2023-04-15T08:49:23.661Z,34.17
2023-04-15T08:50:23.728Z,26.87
2023-04-15T08:51:24.988Z,26.46
2023-04-15T08:52:23.817Z,22.66
2023-04-15T08:53:23.887Z,20.64
2023-04-15T08:54:23.899Z,20.51
2023-04-15T08:55:24.732Z,22.76
2023-04-15T08:56:23.997Z,42.42
2023-04-15T08:57:23.960Z,30.66
2023-04-15T08:58:23.974Z,26.42
2023-04-15T08:59:24.005Z,30.94
2023-04-15T09:00:24.073Z,40.37
2023-04-15T09:01:24.095Z,30.57
2023-04-15T09:02:24.187Z,22.38
2023-04-15T09:03:24.190Z,19.09
2023-04-15T09:04:24.165Z,20.95
2023-04-15T09:05:24.201Z,36.83
2023-04-15T09:06:24.236Z,34.69
2023-04-15T09:07:24.230Z,43.28
2023-04-15T09:08:24.315Z,55.25
2023-04-15T09:09:24.258Z,56.31
2023-04-15T09:10:24.331Z,58.57
2023-04-15T09:11:24.313Z,64.63
2023-04-15T09:12:24.293Z,75.74
2023-04-15T09:13:24.365Z,74.43
2023-04-15T09:14:24.429Z,57.94
2023-04-15T09:15:24.492Z,45.15
2023-04-15T09:16:24.597Z,36.74
2023-04-15T09:17:24.515Z,38.08
2023-04-15T09:18:24.511Z,33.44
2023-04-15T09:19:24.578Z,22.01
2023-04-15T09:20:24.720Z,22.51
2023-04-15T09:21:24.582Z,25.43
2023-04-15T09:22:24.587Z,22.52
2023-04-15T09:23:24.679Z,27.16
2023-04-15T09:24:24.717Z,24.72
2023-04-15T09:25:24.742Z,30.42
2023-04-15T09:26:24.804Z,33.81
2023-04-15T09:27:24.823Z,39.40
2023-04-15T09:28:24.868Z,54.97
2023-04-15T09:29:24.970Z,68.68
2023-04-15T09:30:24.953Z,54.53
2023-04-15T09:31:25.060Z,42.63
2023-04-15T09:32:25.054Z,43.12
2023-04-15T09:33:25.046Z,40.95
2023-04-15T09:34:25.112Z,37.17
2023-04-15T09:35:25.183Z,23.08
2023-04-15T09:36:25.231Z,20.32
2023-04-15T09:37:32.477Z,22.40
2023-04-15T09:38:26.672Z,22.51
2023-04-15T09:39:25.200Z,23.69
2023-04-15T09:40:25.692Z,26.07
2023-04-15T09:41:25.196Z,27.37
2023-04-15T09:42:25.166Z,30.99
2023-04-15T09:43:25.205Z,40.41
2023-04-15T09:44:25.131Z,53.43
2023-04-15T09:45:27.152Z,62.28
2023-04-15T09:46:25.136Z,62.31
2023-04-15T09:47:25.137Z,62.39
2023-04-15T09:48:25.360Z,62.47
2023-04-15T09:49:25.198Z,52.96
2023-04-15T09:50:25.114Z,48.83
2023-04-15T09:51:25.068Z,51.85
2023-04-15T09:52:25.075Z,78.24
2023-04-15T09:53:25.125Z,92.91
2023-04-15T09:54:25.074Z,80.24
2023-04-15T09:55:25.109Z,82.37
2023-04-15T09:56:25.056Z,81.69
2023-04-15T09:57:25.093Z,89.09
2023-04-15T09:58:25.090Z,97.55
2023-04-15T09:59:25.055Z,123.04
2023-04-15T10:00:25.031Z,143.12
2023-04-15T10:01:25.126Z,137.62
2023-04-15T10:02:25.142Z,133.67
2023-04-15T10:03:25.123Z,127.26
2023-04-15T10:04:25.148Z,122.02
2023-04-15T10:05:25.026Z,126.70
2023-04-15T10:06:25.031Z,137.33
2023-04-15T10:07:25.053Z,141.75
2023-04-15T10:08:24.976Z,157.71
2023-04-15T10:09:24.989Z,149.75
2023-04-15T10:10:25.055Z,146.98
2023-04-15T10:11:24.974Z,146.41
2023-04-15T10:12:24.942Z,153.55
2023-04-15T10:13:24.961Z,152.33
2023-04-15T10:14:25.034Z,162.45
2023-04-15T10:15:25.049Z,157.44
2023-04-15T10:16:25.051Z,161.90
2023-04-15T10:17:25.125Z,171.03
2023-04-15T10:18:25.109Z,183.90
2023-04-15T10:19:25.125Z,186.13
2023-04-15T10:20:25.752Z,189.28
2023-04-15T10:21:25.118Z,190.23
2023-04-15T10:22:25.132Z,194.88
2023-04-15T10:23:25.151Z,199.32
2023-04-15T10:24:25.226Z,197.80
2023-04-15T10:25:25.178Z,186.02
2023-04-15T10:26:25.150Z,188.32
2023-04-15T10:27:25.178Z,180.32
2023-04-15T10:28:25.206Z,192.38
2023-04-15T10:29:25.164Z,187.28
2023-04-15T10:30:25.688Z,190.64
2023-04-15T10:31:25.303Z,195.48
2023-04-15T10:32:25.305Z,203.25
2023-04-15T10:33:25.286Z,211.70
2023-04-15T10:34:25.348Z,206.74
2023-04-15T10:35:25.370Z,219.09
2023-04-15T10:36:25.386Z,216.78
2023-04-15T10:37:25.417Z,225.20
2023-04-15T10:38:25.434Z,229.62
2023-04-15T10:39:25.494Z,244.64
2023-04-15T10:40:25.681Z,228.88
2023-04-15T10:41:25.544Z,236.97
2023-04-15T10:42:25.553Z,225.74
2023-04-15T10:43:25.622Z,235.68
2023-04-15T10:44:25.644Z,237.53
2023-04-15T10:45:25.660Z,237.46
2023-04-15T10:46:25.881Z,237.97
2023-04-15T10:47:25.719Z,244.15
2023-04-15T10:48:25.713Z,232.29
2023-04-15T10:49:25.734Z,231.26
2023-04-15T10:50:25.753Z,229.66
2023-04-15T10:51:25.769Z,218.50
2023-04-15T10:52:25.759Z,233.15
2023-04-15T10:53:25.767Z,229.79
2023-04-15T10:54:25.782Z,229.97
2023-04-15T10:55:25.764Z,229.38
2023-04-15T10:56:25.764Z,216.01
2023-04-15T10:57:25.790Z,207.78
2023-04-15T10:58:25.803Z,213.14
2023-04-15T10:59:25.817Z,224.39
2023-04-15T11:00:25.923Z,227.12
2023-04-15T11:01:25.980Z,229.54
2023-04-15T11:02:26.252Z,223.53
2023-04-15T11:03:26.013Z,219.52
2023-04-15T11:04:26.043Z,219.81
2023-04-15T11:05:26.046Z,207.73
2023-04-15T11:06:26.065Z,222.13
2023-04-15T11:07:26.070Z,234.66
2023-04-15T11:08:26.696Z,222.19
2023-04-15T11:09:26.209Z,212.34
2023-04-15T11:10:26.251Z,211.65
2023-04-15T11:11:26.204Z,208.30
2023-04-15T11:12:26.222Z,192.96
2023-04-15T11:13:26.248Z,189.97
2023-04-15T11:14:26.295Z,195.31
2023-04-15T11:15:26.829Z,192.09
2023-04-15T11:16:26.374Z,193.00
2023-04-15T11:17:26.466Z,193.09
2023-04-15T11:18:26.446Z,194.53
2023-04-15T11:19:26.510Z,189.50
2023-04-15T11:20:26.564Z,187.19
2023-04-15T11:21:26.641Z,191.46
2023-04-15T11:22:26.651Z,192.51
2023-04-15T11:23:26.670Z,191.15
2023-04-15T11:24:26.790Z,188.40
2023-04-15T11:25:26.812Z,181.20
2023-04-15T11:26:26.798Z,178.30
2023-04-15T11:27:26.917Z,174.38
2023-04-15T11:28:26.861Z,179.48
2023-04-15T11:29:26.996Z,185.50
2023-04-15T11:30:26.965Z,181.29
2023-04-15T11:31:26.984Z,195.63
2023-04-15T11:32:27.053Z,196.65
2023-04-15T11:33:27.037Z,192.74
2023-04-15T11:34:27.048Z,197.26
2023-04-15T11:35:27.115Z,182.49
2023-04-15T11:36:27.138Z,180.04
2023-04-15T11:37:27.081Z,176.19
2023-04-15T11:38:27.161Z,185.34
2023-04-15T11:39:27.179Z,172.44
2023-04-15T11:40:27.250Z,176.68
2023-04-15T11:41:27.329Z,178.76
2023-04-15T11:42:36.203Z,180.80
2023-04-15T11:43:28.306Z,181.11
2023-04-15T11:44:27.353Z,179.09
2023-04-15T11:45:27.428Z,181.73
2023-04-15T11:46:27.357Z,189.65
2023-04-15T11:47:27.378Z,194.93
2023-04-15T11:48:27.294Z,203.43
2023-04-15T11:49:27.271Z,212.09
2023-04-15T11:50:27.329Z,207.09
2023-04-15T11:51:27.260Z,194.70
2023-04-15T11:52:27.268Z,201.90
2023-04-15T11:53:27.264Z,206.09
2023-04-15T11:54:27.306Z,197.44
2023-04-15T11:55:27.286Z,203.84
2023-04-15T11:56:27.239Z,185.82
2023-04-15T11:57:27.266Z,196.01
2023-04-15T11:58:27.231Z,184.40
2023-04-15T11:59:38.922Z,176.21
2023-04-15T12:00:28.290Z,170.93
2023-04-15T12:01:27.205Z,174.63
2023-04-15T12:02:27.348Z,177.53
2023-04-15T12:03:27.608Z,177.41
2023-04-15T12:04:27.299Z,175.99
2023-04-15T12:05:27.199Z,191.00
2023-04-15T12:06:27.169Z,189.73
2023-04-15T12:07:27.236Z,186.28
2023-04-15T12:08:27.162Z,194.54
2023-04-15T12:09:27.258Z,195.70
2023-04-15T12:10:27.152Z,190.75
2023-04-15T12:11:27.133Z,187.51
2023-04-15T12:12:27.192Z,193.18
2023-04-15T12:13:27.217Z,195.67
2023-04-15T12:14:27.203Z,193.17
2023-04-15T12:15:27.256Z,190.88
2023-04-15T12:16:27.306Z,196.36
2023-04-15T12:17:27.383Z,188.69
2023-04-15T12:18:27.396Z,186.48
2023-04-15T12:19:27.373Z,193.96
2023-04-15T12:20:27.389Z,184.94
2023-04-15T12:21:27.377Z,194.73
2023-04-15T12:22:27.425Z,193.62
2023-04-15T12:23:27.469Z,182.76
2023-04-15T12:24:27.467Z,180.36
2023-04-15T12:25:27.757Z,191.09
2023-04-15T12:26:27.546Z,191.81
2023-04-15T12:27:29.643Z,188.85
2023-04-15T12:28:27.568Z,186.22
2023-04-15T12:29:27.641Z,186.62
2023-04-15T12:30:27.716Z,177.77
2023-04-15T12:31:27.672Z,173.99
2023-04-15T12:32:27.790Z,176.28
2023-04-15T12:33:27.794Z,184.69
2023-04-15T12:34:27.788Z,205.58
2023-04-15T12:35:27.847Z,209.82
2023-04-15T12:36:27.907Z,197.18
2023-04-15T12:37:27.946Z,188.10
2023-04-15T12:38:28.017Z,176.62
2023-04-15T12:39:29.973Z,179.86
2023-04-15T12:40:27.983Z,176.78
2023-04-15T12:41:27.956Z,175.79
2023-04-15T12:42:28.020Z,162.48